Aeroporto :
LOGIN :

Iscrizione | Disclaimer

   EN    FR    IT 

 










Sommario :    VFR   VFR Marginale   IFR   IFR Intensivo   IFR Molto Intensivo
Visibilità : 
Base nubi : 
>= 8 km
>= 3000ft
5 / 8 km
1000 / 3000 ft
1500m / 5 km
500 / 1000 ft
800 / 1500m
200 / 500 ft
< 800m
< 200 ft
Simboli :   Temporali  Nebbia  Neve Forte  Precipitazioni Forti  Vento > 20 kt
SIGMETs :   Varie  Temporali  Ghiacco  Turbolenza  Onda orograficha  Ceneri Vulcaniche






- Altitudine del aeroporto : 1416 ft
- Codice IATA : ZRH


LSZH - Zurich

ULTIMO METAR :
  • 210350Z VRB02KT 7000 MIFG NSC 06/06 Q1011 NOSIG

METARs OBSOLETI :
  • 210320Z 33003KT 7000 MIFG NSC 06/06 Q1011 NOSIG
  • 210250Z VRB03KT 7000 MIFG NSC 07/06 Q1011 NOSIG
  • 210220Z VRB01KT 7000 MIFG NSC 06/06 Q1011 NOSIG
  • 210150Z VRB02KT 6000 MIFG NSC 06/06 Q1012 NOSIG
  • 210120Z VRB01KT 7000 MIFG NSC 07/06 Q1012 NOSIG

TAF TAF LSZH
Valido dal 21 a 03 ore il 22 a 09 ore UTC


210225Z 2103/2209 VRB03KT 6000 NSC TX17/2114Z TN05/2104Z TN08/2204Z
TEMPO 2103/2107 3000 MIFG
PROB40 2103/2106 1500 BCFG
BECMG 2107/2110 CAVOK
BECMG 2121/2124 6000 NSC
TEMPO 2201/2207 3000 MIFG
PROB30 2202/2206 1500 BCFG
BECMG 2207/2209 CAVOK
ATIS : +41 43 816 2295 (DEP) +41 43 816 2294 (ARR)



MetMap, La meteo Aeronautica in un colpo d'occhio ! - Copyright ORBIFLY Dicembre 2007 - Disclaimer

ORBIFLY MET'MAP TEAM :

Programmazione e sviluppo : Alexandra Zaïnal
Concezione : Baudouin d'Aumeries
Aiuto per la programmazione : Marc-Olivier Méhu
Supporto tecnico e logistico : Manuel Goepfert
Aiuto per la traduzione : Arnaldo La Scala

Contatto : metmap@orbifly.com




FONTI E CREDITI :

   NOAA